sensor_id;sensor_type;location;lat;lon;timestamp;P1;durP1;ratioP1;P2;durP2;ratioP2
6519;SDS011;3293;51.690;5.982;2022-07-29T00:01:15;4.15;;;1.90;;
6519;SDS011;3293;51.690;5.982;2022-07-29T00:06:15;2.50;;;1.80;;
6519;SDS011;3293;51.690;5.982;2022-07-29T00:11:15;3.22;;;1.88;;
6519;SDS011;3293;51.690;5.982;2022-07-29T00:16:15;5.47;;;2.25;;
6519;SDS011;3293;51.690;5.982;2022-07-29T00:21:15;5.93;;;2.10;;
6519;SDS011;3293;51.690;5.982;2022-07-29T00:26:15;3.63;;;1.70;;
6519;SDS011;3293;51.690;5.982;2022-07-29T00:31:15;2.67;;;2.00;;
6519;SDS011;3293;51.690;5.982;2022-07-29T00:36:14;2.45;;;1.83;;
6519;SDS011;3293;51.690;5.982;2022-07-29T00:41:15;4.43;;;1.80;;
6519;SDS011;3293;51.690;5.982;2022-07-29T00:46:15;3.78;;;1.90;;
6519;SDS011;3293;51.690;5.982;2022-07-29T00:51:15;2.85;;;1.75;;
6519;SDS011;3293;51.690;5.982;2022-07-29T00:56:15;5.43;;;2.00;;
6519;SDS011;3293;51.690;5.982;2022-07-29T01:01:15;4.97;;;2.15;;
6519;SDS011;3293;51.690;5.982;2022-07-29T01:06:16;3.22;;;1.70;;
6519;SDS011;3293;51.690;5.982;2022-07-29T01:11:17;5.43;;;2.00;;
6519;SDS011;3293;51.690;5.982;2022-07-29T01:16:23;3.08;;;2.13;;
6519;SDS011;3293;51.690;5.982;2022-07-29T01:26:52;4.80;;;2.10;;
6519;SDS011;3293;51.690;5.982;2022-07-29T01:37:08;7.30;;;3.30;;
6519;SDS011;3293;51.690;5.982;2022-07-29T01:47:50;3.47;;;3.17;;
6519;SDS011;3293;51.690;5.982;2022-07-29T01:53:10;6.10;;;3.67;;
6519;SDS011;3293;51.690;5.982;2022-07-29T01:58:14;3.73;;;3.37;;
6519;SDS011;3293;51.690;5.982;2022-07-29T02:03:17;6.77;;;4.20;;
6519;SDS011;3293;51.690;5.982;2022-07-29T02:08:18;7.87;;;4.07;;
6519;SDS011;3293;51.690;5.982;2022-07-29T02:13:19;6.13;;;4.03;;
6519;SDS011;3293;51.690;5.982;2022-07-29T02:18:22;4.57;;;4.17;;
6519;SDS011;3293;51.690;5.982;2022-07-29T02:23:24;4.73;;;3.83;;
6519;SDS011;3293;51.690;5.982;2022-07-29T02:28:26;9.03;;;4.70;;
6519;SDS011;3293;51.690;5.982;2022-07-29T02:33:27;9.43;;;4.13;;
6519;SDS011;3293;51.690;5.982;2022-07-29T02:38:30;9.10;;;5.00;;
6519;SDS011;3293;51.690;5.982;2022-07-29T02:43:54;7.63;;;5.00;;
6519;SDS011;3293;51.690;5.982;2022-07-29T02:49:02;7.43;;;4.67;;
6519;SDS011;3293;51.690;5.982;2022-07-29T02:54:08;6.57;;;4.50;;
6519;SDS011;3293;51.690;5.982;2022-07-29T02:59:13;5.50;;;4.53;;
6519;SDS011;3293;51.690;5.982;2022-07-29T03:04:17;10.97;;;5.20;;
6519;SDS011;3293;51.690;5.982;2022-07-29T03:09:19;9.90;;;4.93;;
6519;SDS011;3293;51.690;5.982;2022-07-29T03:14:21;5.57;;;4.67;;
6519;SDS011;3293;51.690;5.982;2022-07-29T03:19:22;6.10;;;5.03;;
6519;SDS011;3293;51.690;5.982;2022-07-29T03:29:25;10.23;;;5.77;;
6519;SDS011;3293;51.690;5.982;2022-07-29T03:34:26;8.67;;;5.47;;
6519;SDS011;3293;51.690;5.982;2022-07-29T03:39:27;7.77;;;5.70;;
6519;SDS011;3293;51.690;5.982;2022-07-29T03:44:30;7.13;;;5.33;;
6519;SDS011;3293;51.690;5.982;2022-07-29T03:49:31;6.97;;;6.30;;
6519;SDS011;3293;51.690;5.982;2022-07-29T03:54:34;10.43;;;6.10;;
6519;SDS011;3293;51.690;5.982;2022-07-29T03:59:34;8.50;;;5.33;;
6519;SDS011;3293;51.690;5.982;2022-07-29T04:04:34;12.83;;;6.13;;
6519;SDS011;3293;51.690;5.982;2022-07-29T04:09:35;6.20;;;5.47;;
6519;SDS011;3293;51.690;5.982;2022-07-29T04:14:35;6.90;;;5.80;;
6519;SDS011;3293;51.690;5.982;2022-07-29T04:19:35;7.97;;;6.30;;
6519;SDS011;3293;51.690;5.982;2022-07-29T04:24:35;6.57;;;5.87;;
6519;SDS011;3293;51.690;5.982;2022-07-29T04:29:35;7.23;;;5.70;;
6519;SDS011;3293;51.690;5.982;2022-07-29T04:34:34;7.23;;;5.97;;
6519;SDS011;3293;51.690;5.982;2022-07-29T04:39:34;8.23;;;5.40;;
6519;SDS011;3293;51.690;5.982;2022-07-29T04:44:34;8.77;;;5.93;;
6519;SDS011;3293;51.690;5.982;2022-07-29T04:49:36;6.33;;;5.73;;
6519;SDS011;3293;51.690;5.982;2022-07-29T04:54:37;8.13;;;6.13;;
6519;SDS011;3293;51.690;5.982;2022-07-29T04:59:37;6.27;;;5.67;;
6519;SDS011;3293;51.690;5.982;2022-07-29T05:04:37;9.80;;;5.40;;
6519;SDS011;3293;51.690;5.982;2022-07-29T05:09:37;9.10;;;6.60;;
6519;SDS011;3293;51.690;5.982;2022-07-29T05:14:36;7.00;;;6.13;;
6519;SDS011;3293;51.690;5.982;2022-07-29T05:19:37;7.30;;;6.60;;
6519;SDS011;3293;51.690;5.982;2022-07-29T05:24:36;7.17;;;5.57;;
6519;SDS011;3293;51.690;5.982;2022-07-29T05:29:36;8.10;;;6.43;;
6519;SDS011;3293;51.690;5.982;2022-07-29T05:34:36;8.13;;;6.07;;
6519;SDS011;3293;51.690;5.982;2022-07-29T05:39:36;8.40;;;5.87;;
6519;SDS011;3293;51.690;5.982;2022-07-29T05:44:37;9.87;;;6.30;;
6519;SDS011;3293;51.690;5.982;2022-07-29T05:49:38;9.40;;;6.67;;
6519;SDS011;3293;51.690;5.982;2022-07-29T05:54:38;7.23;;;5.90;;
6519;SDS011;3293;51.690;5.982;2022-07-29T05:59:38;13.27;;;6.53;;
6519;SDS011;3293;51.690;5.982;2022-07-29T06:04:38;10.13;;;6.70;;
6519;SDS011;3293;51.690;5.982;2022-07-29T06:09:38;6.53;;;5.73;;
6519;SDS011;3293;51.690;5.982;2022-07-29T06:14:38;6.87;;;6.23;;
6519;SDS011;3293;51.690;5.982;2022-07-29T06:19:38;9.53;;;6.17;;
6519;SDS011;3293;51.690;5.982;2022-07-29T06:24:38;10.83;;;5.80;;
6519;SDS011;3293;51.690;5.982;2022-07-29T06:29:40;5.77;;;5.27;;
6519;SDS011;3293;51.690;5.982;2022-07-29T06:34:40;6.33;;;5.77;;
6519;SDS011;3293;51.690;5.982;2022-07-29T06:39:40;9.27;;;5.93;;
6519;SDS011;3293;51.690;5.982;2022-07-29T06:44:40;11.00;;;6.67;;
6519;SDS011;3293;51.690;5.982;2022-07-29T06:49:41;7.90;;;7.07;;
6519;SDS011;3293;51.690;5.982;2022-07-29T06:54:41;9.17;;;7.17;;
6519;SDS011;3293;51.690;5.982;2022-07-29T06:59:47;9.00;;;7.13;;
6519;SDS011;3293;51.690;5.982;2022-07-29T07:04:47;10.93;;;7.33;;
6519;SDS011;3293;51.690;5.982;2022-07-29T07:09:47;10.67;;;7.60;;
6519;SDS011;3293;51.690;5.982;2022-07-29T07:14:47;8.00;;;7.20;;
6519;SDS011;3293;51.690;5.982;2022-07-29T07:19:47;9.37;;;7.40;;
6519;SDS011;3293;51.690;5.982;2022-07-29T07:24:47;8.97;;;7.90;;
6519;SDS011;3293;51.690;5.982;2022-07-29T07:29:47;8.50;;;7.70;;
6519;SDS011;3293;51.690;5.982;2022-07-29T07:34:47;8.30;;;6.80;;
6519;SDS011;3293;51.690;5.982;2022-07-29T07:39:48;8.67;;;7.70;;
6519;SDS011;3293;51.690;5.982;2022-07-29T07:44:48;8.03;;;6.57;;
6519;SDS011;3293;51.690;5.982;2022-07-29T07:49:51;7.30;;;6.70;;
6519;SDS011;3293;51.690;5.982;2022-07-29T07:54:51;10.80;;;7.10;;
6519;SDS011;3293;51.690;5.982;2022-07-29T07:59:52;12.20;;;7.43;;
6519;SDS011;3293;51.690;5.982;2022-07-29T08:04:52;7.63;;;6.03;;
6519;SDS011;3293;51.690;5.982;2022-07-29T08:09:52;10.53;;;7.17;;
6519;SDS011;3293;51.690;5.982;2022-07-29T08:14:52;11.27;;;6.57;;
6519;SDS011;3293;51.690;5.982;2022-07-29T08:19:52;9.10;;;6.23;;
6519;SDS011;3293;51.690;5.982;2022-07-29T08:24:52;9.03;;;6.33;;
6519;SDS011;3293;51.690;5.982;2022-07-29T08:29:53;6.67;;;6.00;;
6519;SDS011;3293;51.690;5.982;2022-07-29T08:34:55;8.18;;;5.80;;
6519;SDS011;3293;51.690;5.982;2022-07-29T08:39:55;6.38;;;4.57;;
6519;SDS011;3293;51.690;5.982;2022-07-29T08:44:55;4.50;;;4.10;;
6519;SDS011;3293;51.690;5.982;2022-07-29T08:49:57;5.15;;;4.25;;
6519;SDS011;3293;51.690;5.982;2022-07-29T08:54:57;5.53;;;3.97;;
6519;SDS011;3293;51.690;5.982;2022-07-29T08:59:59;6.25;;;3.53;;
6519;SDS011;3293;51.690;5.982;2022-07-29T09:05:00;4.15;;;3.72;;
6519;SDS011;3293;51.690;5.982;2022-07-29T09:10:03;4.72;;;3.65;;
6519;SDS011;3293;51.690;5.982;2022-07-29T09:15:03;4.70;;;3.50;;
6519;SDS011;3293;51.690;5.982;2022-07-29T09:20:11;5.68;;;3.90;;
6519;SDS011;3293;51.690;5.982;2022-07-29T09:25:12;4.75;;;3.33;;
6519;SDS011;3293;51.690;5.982;2022-07-29T09:30:13;4.97;;;3.22;;
6519;SDS011;3293;51.690;5.982;2022-07-29T09:35:14;5.45;;;3.70;;
6519;SDS011;3293;51.690;5.982;2022-07-29T09:40:28;4.22;;;3.35;;
6519;SDS011;3293;51.690;5.982;2022-07-29T09:45:32;5.60;;;3.42;;
6519;SDS011;3293;51.690;5.982;2022-07-29T09:50:37;4.28;;;3.60;;
6519;SDS011;3293;51.690;5.982;2022-07-29T09:55:51;6.80;;;3.50;;
6519;SDS011;3293;51.690;5.982;2022-07-29T10:00:52;4.32;;;3.92;;
6519;SDS011;3293;51.690;5.982;2022-07-29T10:06:06;4.72;;;3.40;;
6519;SDS011;3293;51.690;5.982;2022-07-29T10:11:15;7.45;;;3.72;;
6519;SDS011;3293;51.690;5.982;2022-07-29T10:16:16;4.68;;;3.60;;
6519;SDS011;3293;51.690;5.982;2022-07-29T10:21:17;5.03;;;3.78;;
6519;SDS011;3293;51.690;5.982;2022-07-29T10:26:17;6.68;;;3.47;;
6519;SDS011;3293;51.690;5.982;2022-07-29T10:31:21;4.82;;;4.25;;
6519;SDS011;3293;51.690;5.982;2022-07-29T10:36:47;6.20;;;4.40;;
6519;SDS011;3293;51.690;5.982;2022-07-29T10:42:06;7.63;;;4.50;;
6519;SDS011;3293;51.690;5.982;2022-07-29T10:47:26;8.88;;;4.13;;
6519;SDS011;3293;51.690;5.982;2022-07-29T11:03:46;5.88;;;3.40;;
6519;SDS011;3293;51.690;5.982;2022-07-29T11:08:47;7.03;;;3.78;;
6519;SDS011;3293;51.690;5.982;2022-07-29T11:14:18;4.15;;;3.00;;
6519;SDS011;3293;51.690;5.982;2022-07-29T11:19:38;7.32;;;2.45;;
6519;SDS011;3293;51.690;5.982;2022-07-29T11:24:40;3.58;;;2.33;;
6519;SDS011;3293;51.690;5.982;2022-07-29T11:29:57;4.20;;;2.53;;
6519;SDS011;3293;51.690;5.982;2022-07-29T11:35:21;6.85;;;2.80;;
6519;SDS011;3293;51.690;5.982;2022-07-29T11:40:23;7.22;;;2.53;;
6519;SDS011;3293;51.690;5.982;2022-07-29T11:45:23;4.70;;;2.63;;
6519;SDS011;3293;51.690;5.982;2022-07-29T11:55:31;4.00;;;2.63;;
6519;SDS011;3293;51.690;5.982;2022-07-29T12:00:38;2.80;;;2.55;;
6519;SDS011;3293;51.690;5.982;2022-07-29T12:05:41;5.22;;;2.95;;
6519;SDS011;3293;51.690;5.982;2022-07-29T12:10:44;5.35;;;2.53;;
6519;SDS011;3293;51.690;5.982;2022-07-29T12:15:55;6.13;;;2.67;;
6519;SDS011;3293;51.690;5.982;2022-07-29T12:20:57;2.90;;;2.58;;
6519;SDS011;3293;51.690;5.982;2022-07-29T12:25:59;3.08;;;2.63;;
6519;SDS011;3293;51.690;5.982;2022-07-29T12:30:59;3.92;;;2.70;;
6519;SDS011;3293;51.690;5.982;2022-07-29T12:36:00;5.82;;;2.78;;
6519;SDS011;3293;51.690;5.982;2022-07-29T12:41:02;4.47;;;2.33;;
6519;SDS011;3293;51.690;5.982;2022-07-29T12:46:13;5.38;;;2.75;;
6519;SDS011;3293;51.690;5.982;2022-07-29T12:51:14;4.95;;;2.45;;
6519;SDS011;3293;51.690;5.982;2022-07-29T12:56:16;6.38;;;3.10;;
6519;SDS011;3293;51.690;5.982;2022-07-29T13:01:16;3.00;;;2.30;;
6519;SDS011;3293;51.690;5.982;2022-07-29T13:06:28;3.83;;;2.47;;
6519;SDS011;3293;51.690;5.982;2022-07-29T13:11:41;4.65;;;2.65;;
6519;SDS011;3293;51.690;5.982;2022-07-29T13:17:05;3.05;;;2.40;;
6519;SDS011;3293;51.690;5.982;2022-07-29T13:22:07;4.45;;;2.42;;
6519;SDS011;3293;51.690;5.982;2022-07-29T13:27:15;3.60;;;2.38;;
6519;SDS011;3293;51.690;5.982;2022-07-29T13:32:16;6.45;;;2.65;;
6519;SDS011;3293;51.690;5.982;2022-07-29T13:37:16;3.33;;;2.30;;
6519;SDS011;3293;51.690;5.982;2022-07-29T13:42:18;2.63;;;2.10;;
6519;SDS011;3293;51.690;5.982;2022-07-29T13:47:19;2.40;;;2.20;;
6519;SDS011;3293;51.690;5.982;2022-07-29T13:52:19;3.45;;;2.22;;
6519;SDS011;3293;51.690;5.982;2022-07-29T13:57:19;2.50;;;2.10;;
6519;SDS011;3293;51.690;5.982;2022-07-29T14:02:19;2.50;;;2.25;;
6519;SDS011;3293;51.690;5.982;2022-07-29T14:07:20;5.32;;;2.97;;
6519;SDS011;3293;51.690;5.982;2022-07-29T14:12:20;3.80;;;2.33;;
6519;SDS011;3293;51.690;5.982;2022-07-29T14:17:20;4.00;;;2.45;;
6519;SDS011;3293;51.690;5.982;2022-07-29T14:22:20;3.58;;;2.60;;
6519;SDS011;3293;51.690;5.982;2022-07-29T14:27:20;4.70;;;2.53;;
6519;SDS011;3293;51.690;5.982;2022-07-29T14:32:20;4.85;;;2.50;;
6519;SDS011;3293;51.690;5.982;2022-07-29T14:37:20;3.83;;;2.83;;
6519;SDS011;3293;51.690;5.982;2022-07-29T14:42:20;2.78;;;2.35;;
6519;SDS011;3293;51.690;5.982;2022-07-29T14:47:19;4.10;;;2.28;;
6519;SDS011;3293;51.690;5.982;2022-07-29T14:52:21;4.32;;;2.38;;
6519;SDS011;3293;51.690;5.982;2022-07-29T14:57:20;5.55;;;2.78;;
6519;SDS011;3293;51.690;5.982;2022-07-29T15:02:20;5.28;;;2.40;;
6519;SDS011;3293;51.690;5.982;2022-07-29T15:07:20;3.60;;;2.20;;
6519;SDS011;3293;51.690;5.982;2022-07-29T15:12:20;3.30;;;2.25;;
6519;SDS011;3293;51.690;5.982;2022-07-29T15:17:20;5.72;;;2.65;;
6519;SDS011;3293;51.690;5.982;2022-07-29T15:22:20;5.90;;;2.40;;
6519;SDS011;3293;51.690;5.982;2022-07-29T15:27:20;3.67;;;2.30;;
6519;SDS011;3293;51.690;5.982;2022-07-29T15:32:20;2.80;;;2.20;;
6519;SDS011;3293;51.690;5.982;2022-07-29T15:37:20;2.45;;;2.00;;
6519;SDS011;3293;51.690;5.982;2022-07-29T15:42:20;3.47;;;2.35;;
6519;SDS011;3293;51.690;5.982;2022-07-29T15:47:19;3.00;;;2.30;;
6519;SDS011;3293;51.690;5.982;2022-07-29T15:52:20;5.38;;;2.65;;
6519;SDS011;3293;51.690;5.982;2022-07-29T15:57:20;4.05;;;2.25;;
6519;SDS011;3293;51.690;5.982;2022-07-29T16:02:20;5.68;;;2.45;;
6519;SDS011;3293;51.690;5.982;2022-07-29T16:07:20;4.93;;;2.53;;
6519;SDS011;3293;51.690;5.982;2022-07-29T16:12:20;4.20;;;2.70;;
6519;SDS011;3293;51.690;5.982;2022-07-29T16:17:20;3.38;;;2.50;;
6519;SDS011;3293;51.690;5.982;2022-07-29T16:22:20;3.55;;;2.40;;
6519;SDS011;3293;51.690;5.982;2022-07-29T16:27:20;3.72;;;2.50;;
6519;SDS011;3293;51.690;5.982;2022-07-29T16:32:25;4.72;;;2.60;;
6519;SDS011;3293;51.690;5.982;2022-07-29T16:37:25;4.22;;;2.45;;
6519;SDS011;3293;51.690;5.982;2022-07-29T16:42:25;4.22;;;2.40;;
6519;SDS011;3293;51.690;5.982;2022-07-29T16:47:25;7.10;;;2.75;;
6519;SDS011;3293;51.690;5.982;2022-07-29T16:52:25;6.32;;;3.03;;
6519;SDS011;3293;51.690;5.982;2022-07-29T16:57:25;4.13;;;2.47;;
6519;SDS011;3293;51.690;5.982;2022-07-29T17:02:25;3.28;;;2.45;;
6519;SDS011;3293;51.690;5.982;2022-07-29T17:07:25;3.22;;;2.92;;
6519;SDS011;3293;51.690;5.982;2022-07-29T17:12:25;2.95;;;2.58;;
6519;SDS011;3293;51.690;5.982;2022-07-29T17:17:26;4.15;;;2.55;;
6519;SDS011;3293;51.690;5.982;2022-07-29T17:22:25;5.85;;;2.72;;
6519;SDS011;3293;51.690;5.982;2022-07-29T17:27:26;7.00;;;2.72;;
6519;SDS011;3293;51.690;5.982;2022-07-29T17:32:25;5.95;;;2.83;;
6519;SDS011;3293;51.690;5.982;2022-07-29T17:37:25;4.35;;;2.65;;
6519;SDS011;3293;51.690;5.982;2022-07-29T17:42:27;5.97;;;2.55;;
6519;SDS011;3293;51.690;5.982;2022-07-29T17:47:26;4.25;;;2.65;;
6519;SDS011;3293;51.690;5.982;2022-07-29T17:52:26;6.18;;;2.60;;
6519;SDS011;3293;51.690;5.982;2022-07-29T17:57:26;3.70;;;2.60;;
6519;SDS011;3293;51.690;5.982;2022-07-29T18:02:26;4.85;;;2.72;;
6519;SDS011;3293;51.690;5.982;2022-07-29T18:07:26;5.45;;;2.70;;
6519;SDS011;3293;51.690;5.982;2022-07-29T18:12:27;6.93;;;2.97;;
6519;SDS011;3293;51.690;5.982;2022-07-29T18:17:27;4.55;;;2.83;;
6519;SDS011;3293;51.690;5.982;2022-07-29T18:22:26;4.60;;;2.90;;
6519;SDS011;3293;51.690;5.982;2022-07-29T18:27:26;4.07;;;2.88;;
6519;SDS011;3293;51.690;5.982;2022-07-29T18:32:26;3.42;;;2.75;;
6519;SDS011;3293;51.690;5.982;2022-07-29T18:37:27;4.60;;;2.63;;
6519;SDS011;3293;51.690;5.982;2022-07-29T18:42:27;6.00;;;4.55;;
6519;SDS011;3293;51.690;5.982;2022-07-29T18:47:27;8.13;;;4.43;;
6519;SDS011;3293;51.690;5.982;2022-07-29T18:52:27;5.95;;;2.72;;
6519;SDS011;3293;51.690;5.982;2022-07-29T18:57:28;6.28;;;2.35;;
6519;SDS011;3293;51.690;5.982;2022-07-29T19:02:28;4.45;;;3.15;;
6519;SDS011;3293;51.690;5.982;2022-07-29T19:07:27;5.88;;;3.00;;
6519;SDS011;3293;51.690;5.982;2022-07-29T19:12:28;6.13;;;3.22;;
6519;SDS011;3293;51.690;5.982;2022-07-29T19:17:28;6.00;;;3.20;;
6519;SDS011;3293;51.690;5.982;2022-07-29T19:22:28;5.63;;;2.80;;
6519;SDS011;3293;51.690;5.982;2022-07-29T19:27:28;6.15;;;3.55;;
6519;SDS011;3293;51.690;5.982;2022-07-29T19:32:28;4.68;;;3.25;;
6519;SDS011;3293;51.690;5.982;2022-07-29T19:37:28;7.20;;;3.28;;
6519;SDS011;3293;51.690;5.982;2022-07-29T19:42:28;5.78;;;2.90;;
6519;SDS011;3293;51.690;5.982;2022-07-29T19:47:28;6.35;;;2.85;;
6519;SDS011;3293;51.690;5.982;2022-07-29T19:52:28;4.25;;;2.83;;
6519;SDS011;3293;51.690;5.982;2022-07-29T19:57:28;5.43;;;3.15;;
6519;SDS011;3293;51.690;5.982;2022-07-29T20:02:28;4.95;;;3.22;;
6519;SDS011;3293;51.690;5.982;2022-07-29T20:07:28;4.95;;;3.40;;
6519;SDS011;3293;51.690;5.982;2022-07-29T20:12:28;7.05;;;3.65;;
6519;SDS011;3293;51.690;5.982;2022-07-29T20:17:28;5.47;;;3.25;;
6519;SDS011;3293;51.690;5.982;2022-07-29T20:22:29;4.82;;;3.60;;
6519;SDS011;3293;51.690;5.982;2022-07-29T20:27:29;5.60;;;3.15;;
6519;SDS011;3293;51.690;5.982;2022-07-29T20:32:29;5.70;;;3.35;;
6519;SDS011;3293;51.690;5.982;2022-07-29T20:37:29;3.22;;;2.70;;
6519;SDS011;3293;51.690;5.982;2022-07-29T20:42:29;5.60;;;3.22;;
6519;SDS011;3293;51.690;5.982;2022-07-29T20:47:29;3.58;;;3.00;;
6519;SDS011;3293;51.690;5.982;2022-07-29T20:52:29;4.50;;;2.95;;
6519;SDS011;3293;51.690;5.982;2022-07-29T20:57:29;5.43;;;3.30;;
6519;SDS011;3293;51.690;5.982;2022-07-29T21:02:29;3.72;;;3.03;;
6519;SDS011;3293;51.690;5.982;2022-07-29T21:07:30;4.70;;;2.88;;
6519;SDS011;3293;51.690;5.982;2022-07-29T21:12:30;4.93;;;3.45;;
6519;SDS011;3293;51.690;5.982;2022-07-29T21:17:32;4.80;;;3.17;;
6519;SDS011;3293;51.690;5.982;2022-07-29T21:22:34;5.10;;;3.05;;
6519;SDS011;3293;51.690;5.982;2022-07-29T21:27:34;5.03;;;3.75;;
6519;SDS011;3293;51.690;5.982;2022-07-29T21:32:53;5.50;;;3.55;;
6519;SDS011;3293;51.690;5.982;2022-07-29T21:37:53;3.47;;;3.17;;
6519;SDS011;3293;51.690;5.982;2022-07-29T21:42:53;3.60;;;3.30;;
6519;SDS011;3293;51.690;5.982;2022-07-29T21:47:54;6.10;;;3.95;;
6519;SDS011;3293;51.690;5.982;2022-07-29T21:52:54;4.80;;;3.63;;
6519;SDS011;3293;51.690;5.982;2022-07-29T21:57:54;6.05;;;3.70;;
6519;SDS011;3293;51.690;5.982;2022-07-29T22:02:54;5.20;;;3.35;;
6519;SDS011;3293;51.690;5.982;2022-07-29T22:07:54;5.22;;;3.50;;
6519;SDS011;3293;51.690;5.982;2022-07-29T22:12:56;5.10;;;3.58;;
6519;SDS011;3293;51.690;5.982;2022-07-29T22:17:57;5.75;;;4.05;;
6519;SDS011;3293;51.690;5.982;2022-07-29T22:22:57;4.90;;;3.50;;
6519;SDS011;3293;51.690;5.982;2022-07-29T22:27:57;4.70;;;3.50;;
6519;SDS011;3293;51.690;5.982;2022-07-29T22:32:57;8.07;;;3.75;;
6519;SDS011;3293;51.690;5.982;2022-07-29T22:37:57;6.68;;;4.28;;
6519;SDS011;3293;51.690;5.982;2022-07-29T22:42:57;4.80;;;3.85;;
6519;SDS011;3293;51.690;5.982;2022-07-29T22:47:57;5.25;;;4.28;;
6519;SDS011;3293;51.690;5.982;2022-07-29T22:52:57;7.25;;;4.35;;
6519;SDS011;3293;51.690;5.982;2022-07-29T22:57:57;5.45;;;3.70;;
6519;SDS011;3293;51.690;5.982;2022-07-29T23:02:57;4.47;;;3.90;;
6519;SDS011;3293;51.690;5.982;2022-07-29T23:07:57;3.83;;;3.53;;
6519;SDS011;3293;51.690;5.982;2022-07-29T23:12:57;5.85;;;4.30;;
6519;SDS011;3293;51.690;5.982;2022-07-29T23:17:57;8.32;;;4.50;;
6519;SDS011;3293;51.690;5.982;2022-07-29T23:22:57;6.63;;;4.03;;
6519;SDS011;3293;51.690;5.982;2022-07-29T23:27:57;7.95;;;4.50;;
6519;SDS011;3293;51.690;5.982;2022-07-29T23:32:57;5.22;;;4.50;;
6519;SDS011;3293;51.690;5.982;2022-07-29T23:37:57;9.45;;;4.95;;
6519;SDS011;3293;51.690;5.982;2022-07-29T23:42:57;7.57;;;6.00;;
6519;SDS011;3293;51.690;5.982;2022-07-29T23:47:57;9.18;;;5.30;;
6519;SDS011;3293;51.690;5.982;2022-07-29T23:52:57;9.23;;;5.72;;
6519;SDS011;3293;51.690;5.982;2022-07-29T23:57:57;11.25;;;6.15;;
